createdAt,value
2023-03-22T00:00:29.498Z,72.00
2023-03-22T00:02:56.735Z,72.00
2023-03-22T00:05:31.576Z,72.00
2023-03-22T00:07:58.522Z,72.10
2023-03-22T00:10:25.985Z,72.00
2023-03-22T00:12:52.906Z,72.00
2023-03-22T00:15:19.860Z,72.00
2023-03-22T00:17:46.539Z,72.00
2023-03-22T00:20:13.174Z,72.00
2023-03-22T00:22:39.971Z,72.00
2023-03-22T00:25:06.892Z,72.00
2023-03-22T00:27:33.591Z,72.00
2023-03-22T00:30:00.260Z,72.00
2023-03-22T00:32:26.935Z,72.10
2023-03-22T00:34:59.660Z,72.20
2023-03-22T00:37:27.793Z,72.20
2023-03-22T00:39:54.447Z,72.00
2023-03-22T00:42:21.400Z,72.00
2023-03-22T00:44:53.692Z,72.10
2023-03-22T00:47:20.316Z,72.00
2023-03-22T00:49:47.021Z,72.00
2023-03-22T00:52:13.863Z,72.00
2023-03-22T00:54:40.603Z,72.60
2023-03-22T00:57:07.856Z,72.10
2023-03-22T00:59:38.445Z,72.00
2023-03-22T01:02:06.565Z,72.60
2023-03-22T01:04:35.527Z,72.00
2023-03-22T01:07:03.795Z,72.00
2023-03-22T01:09:31.164Z,72.00
2023-03-22T01:11:58.119Z,72.10
2023-03-22T01:14:25.749Z,72.00
2023-03-22T01:16:54.909Z,72.60
2023-03-22T01:19:21.776Z,71.90
2023-03-22T01:21:48.458Z,72.00
2023-03-22T01:24:15.644Z,72.10
2023-03-22T01:26:42.630Z,72.00
2023-03-22T01:29:09.308Z,72.00
2023-03-22T01:31:35.956Z,72.00
2023-03-22T01:34:02.853Z,72.00
2023-03-22T01:36:29.650Z,72.10
2023-03-22T01:38:56.330Z,71.90
2023-03-22T01:41:23.072Z,72.10
2023-03-22T01:44:15.666Z,71.90
2023-03-22T01:46:43.205Z,72.00
2023-03-22T01:49:13.649Z,72.00
2023-03-22T01:51:42.191Z,72.00
2023-03-22T01:54:13.177Z,72.00
2023-03-22T01:56:40.789Z,71.90
2023-03-22T01:59:09.437Z,72.00
2023-03-22T02:01:36.215Z,72.00
2023-03-22T02:04:08.901Z,72.00
2023-03-22T02:06:39.567Z,72.10
2023-03-22T02:09:07.852Z,72.00
2023-03-22T02:11:38.561Z,72.00
2023-03-22T02:14:46.961Z,72.10
2023-03-22T02:17:37.870Z,72.20
2023-03-22T02:20:10.934Z,72.10
2023-03-22T02:22:43.819Z,72.10
2023-03-22T02:25:32.185Z,72.10
2023-03-22T02:27:58.814Z,72.10
2023-03-22T02:31:03.023Z,72.10
2023-03-22T02:33:54.222Z,72.10
2023-03-22T02:36:30.818Z,72.10
2023-03-22T02:39:18.588Z,72.00
2023-03-22T02:42:14.565Z,72.70
2023-03-22T02:44:50.602Z,72.10
2023-03-22T02:47:24.733Z,72.10
2023-03-22T02:49:57.857Z,72.10
2023-03-22T02:52:41.821Z,72.20
2023-03-22T02:55:18.783Z,72.10
2023-03-22T02:58:11.433Z,72.10
2023-03-22T03:00:38.934Z,72.10
2023-03-22T03:03:11.469Z,72.10
2023-03-22T03:05:42.965Z,72.20
2023-03-22T03:08:10.598Z,72.10
2023-03-22T03:10:38.423Z,72.10
2023-03-22T03:13:05.591Z,72.20
2023-03-22T03:15:32.292Z,72.20
2023-03-22T03:18:11.505Z,72.10
2023-03-22T03:20:44.072Z,72.20
2023-03-22T03:23:24.478Z,72.20
2023-03-22T03:26:13.067Z,72.10
2023-03-22T03:29:02.047Z,72.20
2023-03-22T03:31:34.784Z,72.30
2023-03-22T03:34:30.988Z,72.30
2023-03-22T03:37:08.298Z,72.30
2023-03-22T03:39:37.842Z,72.20
2023-03-22T03:42:04.551Z,72.40
2023-03-22T03:44:31.305Z,72.30
2023-03-22T03:46:57.977Z,72.30
2023-03-22T03:49:24.677Z,72.20
2023-03-22T03:51:55.394Z,72.30
2023-03-22T03:54:28.243Z,72.30
2023-03-22T03:56:54.912Z,72.30
2023-03-22T03:59:21.809Z,72.30
2023-03-22T04:01:54.366Z,72.30
2023-03-22T04:04:27.017Z,72.30
2023-03-22T04:06:58.641Z,72.30
2023-03-22T04:09:27.300Z,72.30
2023-03-22T04:11:54.706Z,72.30
2023-03-22T04:14:21.541Z,72.40
2023-03-22T04:16:48.257Z,72.20
2023-03-22T04:19:15.482Z,72.40
2023-03-22T04:21:42.204Z,72.40
2023-03-22T04:24:08.968Z,72.30
2023-03-22T04:26:35.812Z,72.40
2023-03-22T04:29:03.090Z,72.30
2023-03-22T04:31:30.881Z,72.40
2023-03-22T04:33:57.632Z,72.20
2023-03-22T04:36:24.520Z,72.40
2023-03-22T04:38:51.612Z,72.30
2023-03-22T04:41:18.741Z,72.30
2023-03-22T04:43:46.974Z,72.30
2023-03-22T04:46:14.020Z,72.40
2023-03-22T04:48:41.221Z,72.30
2023-03-22T04:51:09.358Z,72.30
2023-03-22T04:53:38.851Z,72.30
2023-03-22T04:56:09.868Z,72.30
2023-03-22T04:58:39.809Z,72.30
2023-03-22T05:01:07.325Z,72.40
2023-03-22T05:03:34.127Z,72.20
2023-03-22T05:06:01.467Z,72.20
2023-03-22T05:08:28.956Z,72.20
2023-03-22T05:10:57.236Z,72.20
2023-03-22T05:13:29.537Z,72.30
2023-03-22T05:15:56.246Z,72.30
2023-03-22T05:18:26.173Z,72.20
2023-03-22T05:20:55.681Z,72.20
2023-03-22T05:23:22.954Z,72.20
2023-03-22T05:25:50.819Z,72.20
2023-03-22T05:28:19.588Z,72.20
2023-03-22T05:30:46.672Z,72.20
2023-03-22T05:33:14.199Z,72.20
2023-03-22T05:35:41.611Z,72.20
2023-03-22T05:38:08.536Z,72.20
2023-03-22T05:40:35.249Z,72.20
2023-03-22T05:43:01.940Z,72.10
2023-03-22T05:45:28.598Z,72.10
2023-03-22T05:47:55.308Z,72.10
2023-03-22T05:50:22.724Z,72.10
2023-03-22T05:52:49.478Z,72.10
2023-03-22T05:55:17.672Z,72.00
2023-03-22T05:57:44.681Z,72.20
2023-03-22T06:00:16.333Z,72.10
2023-03-22T06:02:44.016Z,72.20
2023-03-22T06:05:15.516Z,72.20
2023-03-22T06:07:42.465Z,72.10
2023-03-22T06:10:13.374Z,72.10
2023-03-22T06:12:40.194Z,72.10
2023-03-22T06:15:08.064Z,72.00
2023-03-22T06:17:37.851Z,72.10
2023-03-22T06:20:11.807Z,72.00
2023-03-22T06:22:38.602Z,72.00
2023-03-22T06:25:06.923Z,72.00
2023-03-22T06:27:34.035Z,72.00
2023-03-22T06:30:00.760Z,72.00
2023-03-22T06:32:27.564Z,71.90
2023-03-22T06:34:54.766Z,72.00
2023-03-22T06:37:21.653Z,72.00
2023-03-22T06:39:48.443Z,72.00
2023-03-22T06:42:15.607Z,71.90
2023-03-22T06:44:43.906Z,72.00
2023-03-22T06:47:11.656Z,72.00
2023-03-22T06:49:38.782Z,72.00
2023-03-22T06:52:05.681Z,71.80
2023-03-22T06:54:32.966Z,72.10
2023-03-22T06:56:59.676Z,72.00
2023-03-22T06:59:26.601Z,72.30
2023-03-22T07:01:53.243Z,72.70
2023-03-22T07:04:20.150Z,72.90
2023-03-22T07:06:47.070Z,73.20
2023-03-22T07:09:13.761Z,72.90
2023-03-22T07:11:40.530Z,73.00
2023-03-22T07:14:07.265Z,72.80
2023-03-22T07:16:33.931Z,72.80
2023-03-22T07:19:00.876Z,73.00
2023-03-22T07:21:27.532Z,72.80
2023-03-22T07:23:55.180Z,72.90
2023-03-22T07:26:21.908Z,73.00
2023-03-22T07:28:48.649Z,72.70
2023-03-22T07:31:15.690Z,72.10
2023-03-22T07:33:42.459Z,72.00
2023-03-22T07:36:09.760Z,71.90
2023-03-22T07:38:36.539Z,71.90
2023-03-22T07:41:03.498Z,71.90
2023-03-22T07:43:37.162Z,72.00
2023-03-22T07:46:10.928Z,72.20
2023-03-22T07:48:39.067Z,72.10
2023-03-22T07:51:06.033Z,72.80
2023-03-22T07:53:32.715Z,72.30
2023-03-22T07:55:59.385Z,72.30
2023-03-22T07:58:26.268Z,72.30
2023-03-22T08:00:53.085Z,72.40
2023-03-22T08:03:19.919Z,72.40
2023-03-22T08:05:47.675Z,72.40
2023-03-22T08:08:14.396Z,72.50
2023-03-22T08:10:41.318Z,72.50
2023-03-22T08:13:08.153Z,72.50
2023-03-22T08:15:37.398Z,72.60
2023-03-22T08:18:04.216Z,72.60
2023-03-22T08:20:30.951Z,72.60
2023-03-22T08:22:57.601Z,72.60
2023-03-22T08:25:24.449Z,72.80
2023-03-22T08:27:51.143Z,72.80
2023-03-22T08:30:18.294Z,73.10
2023-03-22T08:32:44.972Z,73.20
2023-03-22T08:35:11.960Z,73.20
2023-03-22T08:37:39.617Z,73.00
2023-03-22T08:40:11.468Z,72.90
2023-03-22T08:42:38.332Z,73.10
2023-03-22T08:45:05.970Z,72.50
2023-03-22T08:47:32.731Z,73.70
2023-03-22T08:50:02.235Z,72.80
2023-03-22T08:52:32.591Z,73.80
2023-03-22T08:54:59.294Z,73.90
2023-03-22T08:57:27.676Z,74.60
2023-03-22T08:59:54.504Z,74.50
2023-03-22T09:02:21.251Z,74.40
2023-03-22T09:04:48.286Z,74.70
2023-03-22T09:07:15.353Z,74.60
2023-03-22T09:09:42.025Z,74.70
2023-03-22T09:12:08.885Z,75.10
2023-03-22T09:14:36.045Z,74.70
2023-03-22T09:17:02.822Z,74.70
2023-03-22T09:19:29.547Z,74.70
2023-03-22T09:21:56.266Z,74.50
2023-03-22T09:24:22.986Z,74.80
2023-03-22T09:26:50.034Z,75.00
2023-03-22T09:29:16.743Z,74.70
2023-03-22T09:31:44.560Z,75.00
2023-03-22T09:34:11.239Z,75.70
2023-03-22T09:36:37.896Z,75.20
2023-03-22T09:39:06.963Z,74.90
2023-03-22T09:41:48.575Z,75.70
2023-03-22T09:44:31.365Z,75.50
2023-03-22T09:46:59.964Z,75.30
2023-03-22T09:49:52.601Z,75.00
2023-03-22T09:52:20.410Z,75.80
2023-03-22T09:54:47.162Z,75.40
2023-03-22T09:57:26.232Z,75.60
2023-03-22T10:00:12.452Z,75.80
2023-03-22T10:02:46.399Z,75.50
2023-03-22T10:05:26.503Z,75.40
2023-03-22T10:08:18.197Z,75.50
2023-03-22T10:10:44.913Z,75.40
2023-03-22T10:13:15.453Z,75.50
2023-03-22T10:15:44.118Z,75.50
2023-03-22T10:18:21.388Z,75.40
2023-03-22T10:21:04.614Z,75.50
2023-03-22T10:23:41.233Z,75.50
2023-03-22T10:26:09.364Z,76.10
2023-03-22T10:28:41.270Z,75.90
2023-03-22T10:31:15.706Z,75.60
2023-03-22T10:33:51.854Z,75.40
2023-03-22T10:36:21.063Z,76.20
2023-03-22T10:38:55.742Z,76.30
2023-03-22T10:41:23.541Z,76.10
2023-03-22T10:43:55.644Z,76.00
2023-03-22T10:46:24.424Z,76.10
2023-03-22T10:48:51.903Z,75.90
2023-03-22T10:51:24.480Z,76.10
2023-03-22T10:53:51.752Z,76.00
2023-03-22T10:56:20.061Z,76.10
2023-03-22T10:58:47.425Z,76.00
2023-03-22T11:01:17.081Z,75.90
2023-03-22T11:03:51.130Z,76.00
2023-03-22T11:06:19.587Z,76.00
2023-03-22T11:09:07.301Z,76.10
2023-03-22T11:12:12.553Z,76.10
2023-03-22T11:14:45.031Z,76.00
2023-03-22T11:17:14.124Z,75.80
2023-03-22T11:19:41.907Z,76.00
2023-03-22T11:22:34.106Z,76.00
2023-03-22T11:25:00.907Z,75.90
2023-03-22T11:27:32.978Z,75.90
2023-03-22T11:30:07.982Z,76.00
2023-03-22T11:32:38.465Z,76.20
2023-03-22T11:35:14.929Z,74.80
2023-03-22T11:37:48.744Z,74.20
2023-03-22T11:40:17.591Z,73.80
2023-03-22T11:42:44.779Z,73.50
2023-03-22T11:45:15.592Z,73.20
2023-03-22T11:47:42.317Z,73.10
2023-03-22T11:50:19.504Z,73.00
2023-03-22T11:52:47.828Z,73.10
2023-03-22T11:55:15.478Z,73.20
2023-03-22T11:57:42.175Z,73.00
2023-03-22T12:00:22.226Z,73.10
2023-03-22T12:02:56.026Z,73.20
2023-03-22T12:05:27.639Z,73.30
2023-03-22T12:08:08.639Z,73.30
2023-03-22T12:10:42.572Z,73.40
2023-03-22T12:13:22.490Z,73.50
2023-03-22T12:15:52.789Z,73.70
2023-03-22T12:18:20.163Z,73.90
2023-03-22T12:21:00.253Z,73.70
2023-03-22T12:23:31.283Z,73.70
2023-03-22T12:26:05.318Z,73.70
2023-03-22T12:28:43.767Z,73.70
2023-03-22T12:31:14.054Z,73.90
2023-03-22T12:33:43.484Z,74.00
2023-03-22T12:36:12.019Z,74.30
2023-03-22T12:38:49.071Z,74.20
2023-03-22T12:41:17.138Z,74.30
2023-03-22T12:43:57.810Z,74.40
2023-03-22T12:46:29.797Z,74.50
2023-03-22T12:49:01.405Z,74.50
2023-03-22T12:51:28.125Z,74.60
2023-03-22T12:53:56.803Z,74.80
2023-03-22T12:56:38.513Z,74.90
2023-03-22T12:59:06.513Z,75.00
2023-03-22T13:01:46.408Z,75.10
2023-03-22T13:04:26.672Z,75.00
2023-03-22T13:06:56.814Z,75.30
2023-03-22T13:09:37.024Z,75.80
2023-03-22T13:12:18.505Z,75.70
2023-03-22T13:14:51.336Z,75.20
2023-03-22T13:17:23.976Z,75.30
2023-03-22T13:19:53.711Z,75.30
2023-03-22T13:22:30.833Z,75.30
2023-03-22T13:24:59.219Z,75.30
2023-03-22T13:27:41.796Z,75.30
2023-03-22T13:30:33.397Z,75.30
2023-03-22T13:33:08.669Z,75.40
2023-03-22T13:35:48.879Z,75.40
2023-03-22T13:38:31.664Z,75.50
2023-03-22T13:41:03.941Z,75.50
2023-03-22T13:43:46.328Z,75.50
2023-03-22T13:46:22.078Z,75.50
2023-03-22T13:48:49.804Z,75.50
2023-03-22T13:51:30.322Z,75.60
2023-03-22T13:54:13.230Z,75.70
2023-03-22T13:57:00.155Z,75.60
2023-03-22T13:59:29.953Z,75.60
2023-03-22T14:02:16.301Z,75.60
2023-03-22T14:04:44.819Z,75.90
2023-03-22T14:07:40.568Z,75.50
2023-03-22T14:10:17.399Z,75.60
2023-03-22T14:13:05.862Z,75.60
2023-03-22T14:15:38.909Z,75.80
2023-03-22T14:18:12.538Z,75.70
2023-03-22T14:20:39.490Z,75.80
